Time;durP1;ratioP1;P1;durP2;ratioP2;P2;SDS_P1;SDS_P2;PMS_P1;PMS_P2;Temp;Humidity;BMP_temperature;BMP_pressure;BME280_temperature;BME280_humidity;BME280_pressure;Samples;Min_cycle;Max_cycle;Signal;HPM_P1;HPM_P2
2022/08/24 00:01:08;;;;;;;3.47;3.28;;;22.80;43.00;;;;;;20635;6758;299295;-87
2022/08/24 00:03:43;;;;;;;3.70;3.20;;;22.90;42.60;;;;;;20921;6740;119332;-87
2022/08/24 00:06:19;;;;;;;3.40;3.10;;;22.60;42.70;;;;;;20769;6758;117457;-88
2022/08/24 00:08:55;;;;;;;3.70;3.40;;;22.30;43.20;;;;;;20922;6740;116977;-87
2022/08/24 00:11:31;;;;;;;3.43;3.23;;;22.00;43.60;;;;;;20711;6740;276491;-87
2022/08/24 00:14:07;;;;;;;3.45;3.20;;;22.50;43.40;;;;;;20691;6740;278839;-87
2022/08/24 00:16:43;;;;;;;3.72;3.40;;;22.50;43.30;;;;;;20600;6740;338196;-87
2022/08/24 00:19:18;;;;;;;3.47;3.27;;;22.70;43.00;;;;;;20672;6754;276521;-87
2022/08/24 00:21:55;;;;;;;3.62;3.25;;;23.00;42.30;;;;;;20616;6757;278297;-88
2022/08/24 00:24:30;;;;;;;3.83;3.53;;;23.00;42.30;;;;;;20799;6772;117010;-87
2022/08/24 00:27:06;;;;;;;3.70;3.40;;;22.80;42.60;;;;;;20689;6772;117689;-87
2022/08/24 00:29:41;;;;;;;3.40;3.10;;;22.30;43.00;;;;;;20827;6768;117445;-87
2022/08/24 00:32:17;;;;;;;4.70;3.40;;;22.00;43.50;;;;;;20837;6772;117148;-87
2022/08/24 00:34:53;;;;;;;3.63;3.43;;;22.00;44.00;;;;;;20609;6771;277649;-88
2022/08/24 00:37:29;;;;;;;3.70;3.40;;;22.00;44.00;;;;;;20472;6772;292436;-87
2022/08/24 00:40:05;;;;;;;3.30;3.10;;;22.40;43.70;;;;;;20662;6744;305651;-87
2022/08/24 00:42:40;;;;;;;3.37;3.10;;;22.70;43.30;;;;;;20889;6753;122044;-87
2022/08/24 00:45:16;;;;;;;3.17;3.00;;;22.40;43.30;;;;;;20856;6752;117023;-87
2022/08/24 00:47:56;;;;;;;3.43;3.13;;;22.10;43.70;;;;;;20878;6804;117354;-88
2022/08/24 00:50:39;;;;;;;3.60;3.40;;;21.80;44.00;;;;;;20879;6747;116926;-87
2022/08/24 00:53:17;;;;;;;3.60;3.40;;;21.60;44.30;;;;;;20617;6768;307817;-88
2022/08/24 00:55:53;;;;;;;3.67;3.37;;;22.20;44.10;;;;;;20571;6768;279375;-87
2022/08/24 00:58:36;;;;;;;3.57;3.37;;;22.20;44.10;;;;;;20663;6747;305701;-87
2022/08/24 01:01:13;;;;;;;4.57;3.20;;;22.40;43.70;;;;;;20844;6763;117022;-88
2022/08/24 01:03:47;;;;;;;4.00;3.60;;;22.10;43.70;;;;;;20894;6748;120450;-88
2022/08/24 01:06:23;;;;;;;3.97;3.60;;;21.70;44.10;;;;;;20532;6763;308126;-87
2022/08/24 01:08:58;;;;;;;3.75;3.55;;;21.80;44.60;;;;;;20622;6768;306365;-88
2022/08/24 01:11:34;;;;;;;4.00;3.50;;;22.00;44.70;;;;;;20626;6766;279139;-87
2022/08/24 01:14:09;;;;;;;3.70;3.50;;;22.30;44.70;;;;;;20251;6818;308235;-91
2022/08/24 01:19:44;;;;;;;3.83;3.57;;;22.20;44.00;;;;;;20770;6789;117157;-87
2022/08/24 01:22:52;;;;;;;3.80;3.57;;;21.70;44.70;;;;;;20745;6789;117392;-88
2022/08/24 01:25:20;;;;;;;4.20;3.80;;;21.30;45.20;;;;;;20575;6781;277634;-88
2022/08/24 01:27:55;;;;;;;4.10;3.80;;;21.50;45.60;;;;;;20608;6771;306754;-88
2022/08/24 01:30:31;;;;;;;4.03;3.73;;;21.90;45.20;;;;;;20593;6773;295016;-88
2022/08/24 01:33:07;;;;;;;3.60;3.50;;;21.80;45.00;;;;;;20800;6771;119108;-87
2022/08/24 01:35:42;;;;;;;3.90;3.70;;;21.60;45.30;;;;;;20880;6763;118827;-87
2022/08/24 01:38:19;;;;;;;4.07;3.73;;;21.20;45.80;;;;;;20875;6760;116837;-87
2022/08/24 01:40:55;;;;;;;4.27;3.93;;;20.90;46.20;;;;;;20800;6775;116971;-88
2022/08/24 01:43:31;;;;;;;5.07;4.00;;;20.60;46.50;;;;;;20580;6779;307247;-88
2022/08/24 01:46:06;;;;;;;4.70;4.30;;;20.80;46.90;;;;;;20682;6805;118172;-88
2022/08/24 01:48:41;;;;;;;3.80;3.60;;;20.80;46.70;;;;;;20851;6761;117641;-87
2022/08/24 01:51:17;;;;;;;4.30;4.00;;;20.60;46.90;;;;;;20852;6771;120031;-88
2022/08/24 01:53:52;;;;;;;3.90;3.60;;;20.40;47.20;;;;;;20783;6793;117197;-88
2022/08/24 01:56:29;;;;;;;4.10;3.90;;;20.30;47.40;;;;;;20746;6775;119221;-88
2022/08/24 01:59:04;;;;;;;4.00;3.80;;;20.10;47.40;;;;;;20714;6771;117766;-87
2022/08/24 02:01:40;;;;;;;4.30;4.10;;;20.40;47.90;;;;;;20484;6819;306917;-87
2022/08/24 02:04:15;;;;;;;4.63;4.20;;;20.40;47.80;;;;;;20777;6792;117600;-90
2022/08/24 02:06:52;;;;;;;4.60;4.17;;;20.50;47.40;;;;;;20510;6771;308096;-88
2022/08/24 02:09:27;;;;;;;4.70;4.40;;;20.80;47.50;;;;;;20858;6760;117054;-88
2022/08/24 02:12:02;;;;;;;4.83;4.60;;;20.80;47.10;;;;;;20542;6786;278313;-87
2022/08/24 02:14:38;;;;;;;4.50;4.20;;;21.00;46.70;;;;;;20798;6776;117318;-87
2022/08/24 02:17:13;;;;;;;4.47;4.17;;;20.90;46.60;;;;;;20468;6768;280559;-88
2022/08/24 02:19:49;;;;;;;4.50;4.30;;;21.10;46.60;;;;;;20577;6779;317760;-88
2022/08/24 02:22:24;;;;;;;4.17;3.90;;;21.30;46.40;;;;;;20756;6837;117865;-87
2022/08/24 02:25:00;;;;;;;4.57;4.27;;;21.10;46.40;;;;;;20656;6761;280009;-87
2022/08/24 02:27:36;;;;;;;4.17;3.97;;;21.10;46.90;;;;;;20697;6759;117743;-88
2022/08/24 02:30:11;;;;;;;4.87;4.37;;;20.90;46.90;;;;;;20860;6742;127089;-87
2022/08/24 02:32:47;;;;;;;4.75;4.32;;;20.60;47.20;;;;;;20645;6762;338484;-91
2022/08/24 02:35:23;;;;;;;4.70;4.40;;;20.80;47.30;;;;;;20665;6745;306446;-88
2022/08/24 02:37:58;;;;;;;4.87;4.57;;;21.10;46.90;;;;;;20725;6734;278596;-87
2022/08/24 02:40:34;;;;;;;4.23;3.93;;;21.40;46.60;;;;;;20872;6749;117627;-88
2022/08/24 02:43:09;;;;;;;4.80;3.87;;;21.20;46.70;;;;;;20907;6743;117048;-87
2022/08/24 02:45:45;;;;;;;4.90;4.40;;;20.80;46.90;;;;;;20660;6748;294977;-87
2022/08/24 02:48:21;;;;;;;4.60;4.30;;;21.20;46.60;;;;;;20692;6741;281494;-88
2022/08/24 02:50:57;;;;;;;4.90;4.50;;;21.20;46.60;;;;;;20558;6793;279994;-87
2022/08/24 02:53:32;;;;;;;4.67;4.37;;;21.40;45.90;;;;;;20813;6773;117146;-87
2022/08/24 02:56:08;;;;;;;5.03;4.53;;;21.20;46.10;;;;;;20772;6757;117768;-87
2022/08/24 02:58:43;;;;;;;4.70;4.40;;;20.80;46.60;;;;;;20647;6758;277059;-87
2022/08/24 03:01:19;;;;;;;4.47;4.18;;;20.90;46.70;;;;;;20646;6758;338012;-87
2022/08/24 03:03:55;;;;;;;4.97;4.50;;;21.20;47.20;;;;;;20867;6758;119942;-88
2022/08/24 03:06:30;;;;;;;4.93;4.40;;;21.00;46.50;;;;;;20737;6758;117380;-88
2022/08/24 03:09:22;;;;;;;;;;;;;;;;;;;;;
2022/08/24 03:25:29;;;;;;;5.20;4.90;;;19.50;48.20;;;;;;21038;6514;277073;-86
2022/08/24 03:27:54;;;;;;;5.00;4.70;;;19.70;49.00;;;;;;20830;6820;118080;-87
2022/08/24 03:30:20;;;;;;;5.40;4.90;;;19.90;48.50;;;;;;20568;6810;298147;-86
2022/08/24 03:32:45;;;;;;;6.67;5.30;;;20.20;48.10;;;;;;20862;6812;117535;-86
2022/08/24 03:35:12;;;;;;;5.10;4.70;;;20.00;48.00;;;;;;20784;6836;117574;-86
2022/08/24 03:37:38;;;;;;;5.18;4.80;;;20.00;48.00;;;;;;20553;6845;308861;-86
2022/08/24 03:40:03;;;;;;;5.10;4.80;;;20.20;47.80;;;;;;20874;6802;117015;-86
2022/08/24 03:42:29;;;;;;;5.37;4.87;;;20.20;47.70;;;;;;20679;6802;310660;-86
2022/08/24 03:44:55;;;;;;;5.40;4.80;;;20.40;47.40;;;;;;20894;6802;119025;-86
2022/08/24 03:47:21;;;;;;;4.53;4.23;;;20.20;47.90;;;;;;20858;6814;116107;-86
2022/08/24 03:49:47;;;;;;;5.90;5.17;;;19.90;47.50;;;;;;20858;6814;117475;-88
2022/08/24 03:52:13;;;;;;;5.50;4.57;;;19.60;48.20;;;;;;20704;6840;120298;-86
2022/08/24 03:54:38;;;;;;;5.00;4.60;;;19.50;48.00;;;;;;20593;6829;336063;-86
2022/08/24 03:57:04;;;;;;;4.97;4.10;;;19.80;47.80;;;;;;20791;6829;119720;-86
2022/08/24 03:59:30;;;;;;;5.50;4.40;;;19.70;47.70;;;;;;20835;6814;117659;-86
2022/08/24 04:01:56;;;;;;;5.07;4.60;;;19.70;47.70;;;;;;20855;6814;116931;-86
2022/08/24 04:04:21;;;;;;;4.57;4.23;;;19.50;47.90;;;;;;20506;6837;310216;-86
2022/08/24 04:06:47;;;;;;;4.37;4.17;;;19.80;48.50;;;;;;20759;6834;117448;-86
2022/08/24 04:09:12;;;;;;;5.50;4.50;;;19.80;48.20;;;;;;20740;6849;119458;-87
2022/08/24 04:11:38;;;;;;;5.03;4.40;;;19.70;48.30;;;;;;20538;6849;280367;-87
2022/08/24 04:14:04;;;;;;;4.63;4.37;;;19.90;47.70;;;;;;20726;6849;117359;-87
2022/08/24 04:16:30;;;;;;;4.20;4.00;;;19.70;48.00;;;;;;20769;6839;117517;-87
2022/08/24 04:18:55;;;;;;;4.45;4.15;;;19.60;47.90;;;;;;20507;6843;337053;-87
2022/08/24 04:21:24;;;;;;;4.40;4.20;;;19.90;48.10;;;;;;20526;6847;292965;-87
2022/08/24 04:23:51;;;;;;;5.17;4.40;;;20.20;47.50;;;;;;20813;6825;117791;-86
2022/08/24 04:26:17;;;;;;;4.97;4.57;;;20.10;47.40;;;;;;20593;6833;337163;-86
2022/08/24 04:28:43;;;;;;;5.00;4.47;;;20.20;47.40;;;;;;20825;6837;116365;-86
2022/08/24 04:31:09;;;;;;;4.77;4.27;;;20.00;47.30;;;;;;20771;6837;117375;-87
2022/08/24 04:33:35;;;;;;;4.97;4.68;;;19.50;48.20;;;;;;20810;6825;117750;-87
2022/08/24 04:36:01;;;;;;;5.17;4.10;;;19.50;48.20;;;;;;20770;6842;124749;-87
2022/08/24 04:38:27;;;;;;;4.60;4.20;;;19.30;48.50;;;;;;20846;6810;121555;-87
2022/08/24 04:40:52;;;;;;;4.47;4.17;;;19.20;48.80;;;;;;20861;6810;117037;-86
2022/08/24 04:43:19;;;;;;;5.30;4.80;;;19.10;49.00;;;;;;20636;6818;279936;-87
2022/08/24 04:45:45;;;;;;;5.30;4.93;;;19.80;48.10;;;;;;20635;6818;278552;-86
2022/08/24 04:48:11;;;;;;;4.93;4.57;;;19.80;48.10;;;;;;20820;6803;117548;-87
2022/08/24 04:50:36;;;;;;;4.72;4.37;;;19.80;48.10;;;;;;20897;6803;117745;-86
2022/08/24 04:53:03;;;;;;;4.60;4.40;;;19.60;48.40;;;;;;20874;6803;116996;-87
2022/08/24 04:55:27;;;;;;;4.70;4.40;;;19.40;48.50;;;;;;20642;6812;279954;-87
2022/08/24 04:57:53;;;;;;;4.30;4.00;;;19.60;48.40;;;;;;20863;6812;118218;-87
2022/08/24 05:00:20;;;;;;;4.50;4.30;;;19.60;49.10;;;;;;20636;6812;336940;-87
2022/08/24 05:02:45;;;;;;;4.93;4.63;;;19.90;48.80;;;;;;20861;6812;117227;-87
2022/08/24 05:05:11;;;;;;;4.45;4.15;;;19.90;48.50;;;;;;20646;6812;336450;-89
2022/08/24 05:07:36;;;;;;;4.72;4.35;;;20.10;48.50;;;;;;20648;6812;277639;-87
2022/08/24 05:10:02;;;;;;;4.80;4.40;;;20.40;47.90;;;;;;20843;6812;117201;-87
2022/08/24 05:12:28;;;;;;;5.00;4.37;;;20.40;48.00;;;;;;20859;6812;117228;-87
2022/08/24 05:14:54;;;;;;;4.80;4.50;;;20.20;48.20;;;;;;20658;6812;303530;-86
2022/08/24 05:17:19;;;;;;;4.70;4.40;;;20.40;48.30;;;;;;20719;6812;309773;-87
2022/08/24 05:19:49;;;;;;;5.27;4.87;;;20.60;46.90;;;;;;20890;6812;117734;-88
2022/08/24 05:22:14;;;;;;;4.68;4.32;;;20.60;46.90;;;;;;20647;6812;319445;-86
2022/08/24 05:24:39;;;;;;;4.30;4.00;;;20.70;47.00;;;;;;20870;6812;117254;-88
2022/08/24 05:27:05;;;;;;;4.53;4.23;;;20.60;47.20;;;;;;20870;6812;116205;-87
2022/08/24 05:29:33;;;;;;;4.37;4.10;;;20.20;48.10;;;;;;20873;6812;117351;-88
2022/08/24 05:31:58;;;;;;;4.37;4.17;;;20.20;48.10;;;;;;20877;6812;117155;-86
2022/08/24 05:34:24;;;;;;;4.60;4.20;;;19.90;48.80;;;;;;20856;6812;117561;-87
2022/08/24 05:36:50;;;;;;;4.17;3.97;;;19.90;49.00;;;;;;20872;6812;116374;-90
2022/08/24 05:39:16;;;;;;;5.00;4.43;;;19.80;48.90;;;;;;20872;6812;117771;-86
2022/08/24 05:41:42;;;;;;;4.43;4.13;;;19.80;49.20;;;;;;20919;6812;116312;-86
2022/08/24 05:44:07;;;;;;;4.90;4.50;;;19.80;49.30;;;;;;20667;6812;309048;-87
2022/08/24 05:46:33;;;;;;;4.90;4.50;;;20.10;49.20;;;;;;20874;6810;116893;-87
2022/08/24 05:48:58;;;;;;;8.50;4.40;;;20.20;48.90;;;;;;20874;6811;117125;-87
2022/08/24 05:51:25;;;;;;;4.57;4.27;;;20.00;49.10;;;;;;20900;6811;117625;-87
2022/08/24 05:53:50;;;;;;;4.83;4.53;;;20.00;49.10;;;;;;20901;6811;116007;-87
2022/08/24 05:56:16;;;;;;;4.67;4.47;;;19.90;49.30;;;;;;20874;6811;116886;-87
2022/08/24 05:58:43;;;;;;;4.87;4.50;;;20.30;49.10;;;;;;20671;6811;278101;-88
2022/08/24 06:01:11;;;;;;;5.45;4.95;;;20.20;49.00;;;;;;20684;6811;336397;-87
2022/08/24 06:03:37;;;;;;;4.93;4.47;;;20.70;48.10;;;;;;20718;6811;276814;-86
2022/08/24 06:06:42;;;;;;;5.25;4.90;;;21.10;47.50;;;;;;20734;6811;305887;-87
2022/08/24 06:09:20;;;;;;;4.80;4.50;;;21.00;47.50;;;;;;21084;6716;116330;-88
2022/08/24 06:11:54;;;;;;;4.57;4.30;;;21.00;47.50;;;;;;20987;6716;116949;-87
2022/08/24 06:14:30;;;;;;;4.80;4.33;;;20.80;48.80;;;;;;21001;6706;117591;-88
2022/08/24 06:17:06;;;;;;;4.90;4.50;;;20.60;48.40;;;;;;20860;6730;117162;-87
2022/08/24 06:19:42;;;;;;;5.00;4.50;;;20.50;48.50;;;;;;21012;6711;116912;-87
2022/08/24 06:22:17;;;;;;;4.93;4.70;;;20.80;47.90;;;;;;20779;6711;305209;-92
2022/08/24 06:27:51;;;;;;;4.63;4.23;;;20.80;48.00;;;;;;20788;6773;118213;-88
2022/08/24 06:30:26;;;;;;;4.80;4.40;;;20.80;47.90;;;;;;20972;6718;117103;-86
2022/08/24 06:33:01;;;;;;;4.80;4.50;;;20.80;48.20;;;;;;21016;6703;117124;-86
2022/08/24 06:35:37;;;;;;;5.40;4.90;;;20.80;48.50;;;;;;21019;6703;116786;-86
2022/08/24 06:38:13;;;;;;;5.23;4.83;;;21.10;49.00;;;;;;20975;6718;117412;-86
2022/08/24 06:40:49;;;;;;;5.43;5.03;;;21.00;48.40;;;;;;20747;6730;305747;-86
2022/08/24 06:43:24;;;;;;;5.62;5.22;;;21.50;47.40;;;;;;20750;6735;290848;-86
2022/08/24 06:46:03;;;;;;;4.53;4.23;;;22.00;47.10;;;;;;20918;6735;118914;-86
2022/08/24 06:48:41;;;;;;;5.20;4.90;;;22.20;46.30;;;;;;20763;6711;278601;-86
2022/08/24 06:51:11;;;;;;;5.07;4.80;;;22.40;46.10;;;;;;20744;6729;276970;-88
2022/08/24 06:53:46;;;;;;;5.47;5.03;;;22.80;45.40;;;;;;20951;6727;119793;-86
2022/08/24 06:56:22;;;;;;;5.00;4.70;;;22.90;45.30;;;;;;20658;6727;306633;-86
2022/08/24 06:58:58;;;;;;;5.30;4.90;;;23.10;44.50;;;;;;20890;6747;116894;-87
2022/08/24 07:01:33;;;;;;;4.93;4.73;;;23.20;44.80;;;;;;20925;6738;117326;-86
2022/08/24 07:04:10;;;;;;;5.10;4.50;;;23.10;45.00;;;;;;20919;6736;117545;-87
2022/08/24 07:06:46;;;;;;;4.70;4.40;;;23.10;45.20;;;;;;20606;6750;279355;-87
2022/08/24 07:09:23;;;;;;;4.43;4.13;;;23.50;44.10;;;;;;21060;6716;115864;-87
2022/08/24 07:11:57;;;;;;;5.23;4.40;;;23.80;44.50;;;;;;21190;6621;116445;-86
2022/08/24 07:28:15;;;;;;;4.50;4.27;;;25.50;41.20;;;;;;21053;6516;72467;-88
2022/08/24 07:30:41;;;;;;;4.10;3.80;;;25.20;41.80;;;;;;20932;6793;116942;-87
2022/08/24 07:33:08;;;;;;;5.67;4.13;;;25.00;42.70;;;;;;20860;6810;118004;-86
2022/08/24 07:35:33;;;;;;;4.53;4.22;;;25.00;42.00;;;;;;20632;6810;337002;-86
2022/08/24 07:38:00;;;;;;;4.67;4.27;;;25.60;40.90;;;;;;20555;6843;281375;-87
2022/08/24 07:40:26;;;;;;;5.80;4.33;;;25.60;40.80;;;;;;20669;6868;120901;-87
2022/08/24 07:42:51;;;;;;;4.53;4.00;;;25.70;41.00;;;;;;20760;6843;120365;-87
2022/08/24 07:45:17;;;;;;;4.47;4.17;;;25.60;41.10;;;;;;20544;6843;316792;-86
2022/08/24 07:47:42;;;;;;;4.67;4.27;;;25.80;40.10;;;;;;20764;6843;117871;-87
2022/08/24 07:50:08;;;;;;;4.30;4.00;;;26.00;40.60;;;;;;20741;6843;117856;-86
2022/08/24 07:52:33;;;;;;;4.57;4.18;;;26.00;40.90;;;;;;20771;6843;117473;-87
2022/08/24 07:54:59;;;;;;;3.73;3.63;;;26.00;41.10;;;;;;20689;6868;117415;-87
2022/08/24 07:57:25;;;;;;;4.17;3.90;;;26.40;39.10;;;;;;20552;6843;279522;-87
2022/08/24 07:59:51;;;;;;;3.70;3.60;;;26.60;39.20;;;;;;20767;6843;119757;-87
2022/08/24 08:02:17;;;;;;;4.00;3.80;;;26.60;39.20;;;;;;20663;6868;119868;-87
2022/08/24 08:04:42;;;;;;;4.10;3.70;;;26.70;39.20;;;;;;20768;6843;117733;-86
2022/08/24 08:07:08;;;;;;;4.57;4.20;;;26.80;39.00;;;;;;20472;6868;312351;-87
2022/08/24 08:09:37;;;;;;;3.90;3.67;;;27.20;37.50;;;;;;20551;6843;308520;-87
2022/08/24 08:12:03;;;;;;;4.40;4.00;;;28.20;37.30;;;;;;20554;6843;290705;-87
2022/08/24 08:14:29;;;;;;;4.13;3.70;;;28.10;36.80;;;;;;20594;6842;118028;-87
2022/08/24 08:16:54;;;;;;;4.30;3.53;;;28.30;37.10;;;;;;20774;6842;118420;-88
2022/08/24 08:19:20;;;;;;;4.87;3.60;;;28.30;37.40;;;;;;20771;6842;118324;-88
2022/08/24 08:24:31;;;;;;;3.60;3.37;;;28.60;35.60;;;;;;20555;6843;338059;-88
2022/08/24 08:26:56;;;;;;;3.93;3.60;;;29.10;35.20;;;;;;20549;6843;307319;-87
2022/08/24 08:29:24;;;;;;;3.75;3.50;;;29.50;34.60;;;;;;20486;6868;339103;-87
2022/08/24 08:31:49;;;;;;;4.90;3.50;;;29.90;33.50;;;;;;20570;6842;278569;-89
2022/08/24 08:34:15;;;;;;;3.80;3.53;;;30.20;33.60;;;;;;20749;6842;118129;-88
2022/08/24 08:36:40;;;;;;;4.27;3.87;;;30.20;33.20;;;;;;20768;6842;117756;-88
2022/08/24 08:39:06;;;;;;;3.93;3.63;;;30.00;33.40;;;;;;20765;6840;117261;-88
2022/08/24 08:42:09;;;;;;;3.90;3.30;;;29.70;33.70;;;;;;20768;6841;117577;-88
2022/08/24 08:44:57;;;;;;;3.57;3.37;;;29.50;34.40;;;;;;20763;6842;118047;-88
2022/08/24 08:47:29;;;;;;;4.10;3.80;;;29.40;35.00;;;;;;19676;7206;119691;-87
2022/08/24 08:49:58;;;;;;;4.00;3.70;;;29.40;34.80;;;;;;20096;6842;312018;-88
2022/08/24 08:52:50;;;;;;;4.00;3.70;;;29.70;33.20;;;;;;20723;6842;118196;-88
2022/08/24 08:55:18;;;;;;;3.27;2.97;;;29.90;33.20;;;;;;20770;6842;117397;-88
2022/08/24 08:57:50;;;;;;;3.62;2.70;;;29.80;33.10;;;;;;20537;6842;336979;-88
2022/08/24 09:00:21;;;;;;;3.15;2.95;;;30.00;32.40;;;;;;20539;6842;332484;-88
2022/08/24 09:03:04;;;;;;;3.20;2.60;;;30.40;30.50;;;;;;20541;6842;280557;-88
2022/08/24 09:05:40;;;;;;;5.17;2.67;;;30.70;29.50;;;;;;20767;6842;118075;-88
2022/08/24 09:08:17;;;;;;;4.40;2.43;;;30.60;29.90;;;;;;20736;6842;128309;-88
2022/08/24 09:11:05;;;;;;;2.95;2.28;;;30.60;29.90;;;;;;20559;6842;336538;-88
2022/08/24 09:13:54;;;;;;;3.27;2.20;;;30.70;29.00;;;;;;20774;6842;120358;-88
2022/08/24 09:16:37;;;;;;;2.40;2.20;;;30.80;27.60;;;;;;20539;6842;311220;-88
2022/08/24 09:19:09;;;;;;;2.87;2.53;;;30.80;27.60;;;;;;20506;6842;280215;-88
2022/08/24 09:22:02;;;;;;;2.50;2.17;;;31.00;28.30;;;;;;20562;6842;337141;-88
2022/08/24 09:24:51;;;;;;;2.27;2.17;;;31.20;28.00;;;;;;19802;7040;120227;-88
2022/08/24 09:28:00;;;;;;;3.87;2.00;;;30.90;28.00;;;;;;19608;7133;119451;-88
2022/08/24 09:30:56;;;;;;;1.80;1.70;;;30.90;28.00;;;;;;19860;7081;119972;-88
2022/08/24 09:33:34;;;;;;;3.17;2.17;;;30.80;27.30;;;;;;20347;6781;277128;-88
2022/08/24 09:36:13;;;;;;;1.80;1.70;;;31.10;27.00;;;;;;20860;6725;120842;-88
2022/08/24 09:39:05;;;;;;;2.40;1.90;;;31.20;27.80;;;;;;20843;6757;117738;-88
2022/08/24 09:42:21;;;;;;;1.90;1.80;;;31.20;28.00;;;;;;20896;6747;117353;-87
2022/08/24 09:45:47;;;;;;;;;;;;;;;;;;;;;
2022/08/24 09:48:49;;;;;;;1.70;1.60;;;31.10;27.40;;;;;;20581;6781;333524;-89
2022/08/24 09:51:55;;;;;;;2.00;1.90;;;31.40;27.10;;;;;;20876;6753;117478;-89
2022/08/24 09:54:34;;;;;;;2.40;1.90;;;31.50;27.20;;;;;;20860;6753;116928;-88
2022/08/24 09:57:46;;;;;;;2.90;1.80;;;31.30;27.20;;;;;;20543;6731;278602;-88
2022/08/24 10:00:25;;;;;;;2.80;2.60;;;31.50;26.80;;;;;;20687;6739;336144;-88
2022/08/24 10:03:26;;;;;;;2.47;2.27;;;32.00;27.00;;;;;;20919;6738;119094;-89
2022/08/24 10:06:14;;;;;;;2.25;1.95;;;32.00;27.10;;;;;;20713;6726;328044;-88
2022/08/24 10:09:16;;;;;;;2.07;1.97;;;32.20;26.90;;;;;;20986;6731;117034;-88
2022/08/24 10:12:31;;;;;;;2.17;2.00;;;32.10;27.20;;;;;;20951;6734;116994;-89
2022/08/24 10:15:17;;;;;;;2.22;1.80;;;32.10;27.00;;;;;;20682;6749;308193;-89
2022/08/24 10:18:10;;;;;;;1.83;1.75;;;32.10;26.50;;;;;;20937;6749;117057;-88
2022/08/24 10:21:11;;;;;;;2.12;1.80;;;32.00;26.60;;;;;;20663;6749;306610;-88
2022/08/24 10:24:01;;;;;;;1.70;1.60;;;32.10;25.30;;;;;;20936;6749;119781;-88
2022/08/24 10:27:06;;;;;;;1.87;1.80;;;32.00;26.00;;;;;;20272;6843;117914;-88
2022/08/24 10:29:48;;;;;;;1.80;1.70;;;31.70;26.20;;;;;;20685;6761;306605;-88
2022/08/24 10:32:44;;;;;;;1.90;1.80;;;31.70;26.10;;;;;;20760;6779;117811;-88
2022/08/24 10:35:39;;;;;;;2.03;1.90;;;31.70;26.40;;;;;;20709;6770;117360;-88
2022/08/24 10:42:00;;;;;;;2.00;1.90;;;32.00;26.70;;;;;;20615;6771;277934;-88
2022/08/24 10:44:49;;;;;;;1.97;1.87;;;32.00;26.60;;;;;;20797;6777;125139;-90
2022/08/24 10:47:29;;;;;;;1.73;1.63;;;31.90;27.00;;;;;;20496;6758;279882;-88
2022/08/24 10:50:30;;;;;;;2.10;1.90;;;32.10;26.50;;;;;;20597;6769;278208;-88
2022/08/24 10:53:12;;;;;;;1.90;1.80;;;32.30;26.50;;;;;;20401;6826;308455;-88
2022/08/24 10:56:01;;;;;;;2.10;1.90;;;32.60;26.50;;;;;;20466;6841;279182;-88
2022/08/24 10:58:56;;;;;;;2.43;1.80;;;32.80;25.50;;;;;;20310;6808;308793;-88
2022/08/24 11:01:34;;;;;;;2.50;1.70;;;33.00;25.20;;;;;;20670;6759;307415;-87
2022/08/24 11:04:11;;;;;;;2.80;2.47;;;33.00;25.20;;;;;;20649;6759;306408;-88
2022/08/24 11:07:16;;;;;;;2.70;1.50;;;33.00;25.20;;;;;;20759;6808;117935;-88
2022/08/24 11:09:55;;;;;;;1.50;1.40;;;32.80;25.30;;;;;;20894;6759;117068;-88
2022/08/24 11:12:30;;;;;;;1.53;1.43;;;32.50;25.30;;;;;;20684;6759;277089;-88
2022/08/24 11:15:09;;;;;;;1.70;1.60;;;32.50;25.00;;;;;;20684;6759;289388;-88
2022/08/24 11:17:59;;;;;;;1.73;1.70;;;32.70;25.00;;;;;;20625;6833;117603;-88
2022/08/24 11:20:35;;;;;;;1.50;1.40;;;32.70;25.40;;;;;;20799;6798;120010;-90
2022/08/24 11:23:20;;;;;;;1.53;1.53;;;32.50;25.90;;;;;;20926;6753;117391;-87
2022/08/24 11:26:44;;;;;;;2.37;1.75;;;32.40;26.00;;;;;;20513;6751;335038;-94
2022/08/24 11:29:17;;;;;;;1.50;1.50;;;32.50;25.80;;;;;;20958;6751;117218;-88
2022/08/24 11:31:52;;;;;;;1.92;1.75;;;32.60;25.80;;;;;;20705;6751;339203;-89
2022/08/24 11:34:31;;;;;;;2.50;1.63;;;32.70;26.60;;;;;;20699;6751;301285;-88
2022/08/24 11:37:08;;;;;;;2.00;1.90;;;33.00;26.30;;;;;;20551;6751;308493;-88
2022/08/24 11:39:43;;;;;;;1.80;1.70;;;33.20;26.50;;;;;;20651;6769;305948;-89
2022/08/24 11:42:32;;;;;;;2.00;1.90;;;33.40;26.40;;;;;;20829;6769;117120;-88
2022/08/24 11:45:24;;;;;;;;;;;;;;;;;;;;;
2022/08/24 11:47:49;;;;;;;1.80;1.70;;;33.00;25.90;;;;;;20630;6776;279813;-88
2022/08/24 11:50:44;;;;;;;1.70;1.50;;;33.00;25.70;;;;;;20568;6756;309415;-89
2022/08/24 11:53:43;;;;;;;2.07;1.67;;;33.10;25.90;;;;;;20913;6755;118954;-88
2022/08/24 11:56:22;;;;;;;1.80;1.70;;;32.90;26.00;;;;;;20763;6755;118348;-88
2022/08/24 11:59:07;;;;;;;1.90;1.80;;;32.60;26.20;;;;;;20620;6773;277267;-88
2022/08/24 12:01:46;;;;;;;1.63;1.63;;;32.70;26.60;;;;;;20913;6742;117069;-88
2022/08/24 12:04:32;;;;;;;2.27;2.07;;;32.50;27.10;;;;;;20761;6772;118806;-88
2022/08/24 12:07:24;;;;;;;1.80;1.70;;;32.50;27.10;;;;;;20738;6766;117418;-88
2022/08/24 12:10:18;;;;;;;1.50;1.50;;;32.10;26.90;;;;;;20864;6753;117532;-89
2022/08/24 12:13:02;;;;;;;2.00;1.90;;;32.10;26.90;;;;;;19643;7085;319744;-88
2022/08/24 12:15:42;;;;;;;1.97;1.70;;;32.20;26.60;;;;;;20536;6822;117116;-88
2022/08/24 12:18:31;;;;;;;1.80;1.70;;;32.10;26.50;;;;;;20668;6742;335116;-88
2022/08/24 12:21:07;;;;;;;1.30;1.30;;;32.20;27.20;;;;;;20853;6758;117574;-89
2022/08/24 12:23:48;;;;;;;2.30;1.80;;;32.00;27.10;;;;;;20620;6758;307215;-89
2022/08/24 12:26:28;;;;;;;1.63;1.53;;;32.40;27.60;;;;;;20529;6805;279502;-88
2022/08/24 12:29:09;;;;;;;1.60;1.50;;;32.40;27.10;;;;;;20586;6772;308559;-89
2022/08/24 12:31:45;;;;;;;1.63;1.57;;;32.70;25.50;;;;;;20806;6772;117143;-89
2022/08/24 12:34:54;;;;;;;1.70;1.52;;;32.70;26.30;;;;;;20571;6772;335733;-89
2022/08/24 12:37:33;;;;;;;1.30;1.30;;;32.50;26.40;;;;;;20679;6776;117436;-89
2022/08/24 12:40:39;;;;;;;;;;;;;;;;;;;;;
2022/08/24 12:43:11;;;;;;;1.70;1.60;;;32.60;26.20;;;;;;20597;6773;282047;-89
2022/08/24 12:45:46;;;;;;;1.53;1.47;;;32.80;25.60;;;;;;20738;6790;117217;-88
2022/08/24 12:48:53;;;;;;;1.23;1.23;;;32.70;25.90;;;;;;20818;6751;117086;-89
2022/08/24 12:51:42;;;;;;;1.53;1.43;;;32.50;26.40;;;;;;20595;6762;279179;-88
2022/08/24 12:54:22;;;;;;;1.30;1.30;;;32.60;25.50;;;;;;20863;6751;117277;-88
2022/08/24 12:57:14;;;;;;;1.50;1.40;;;32.50;25.70;;;;;;20560;6809;278195;-91
2022/08/24 12:59:52;;;;;;;1.85;1.75;;;32.70;26.00;;;;;;20651;6753;307958;-87
2022/08/24 13:02:33;;;;;;;1.50;1.37;;;32.90;25.70;;;;;;20845;6759;119244;-88
2022/08/24 13:05:09;;;;;;;1.30;1.30;;;32.70;25.60;;;;;;20798;6781;118185;-88
2022/08/24 13:07:45;;;;;;;1.80;1.70;;;32.30;26.00;;;;;;20685;6824;117511;-88
2022/08/24 13:10:22;;;;;;;2.00;1.60;;;32.10;26.80;;;;;;20679;6757;297036;-89
2022/08/24 13:13:07;;;;;;;1.60;1.60;;;32.10;26.70;;;;;;20864;6769;117263;-88
2022/08/24 13:15:43;;;;;;;2.07;1.70;;;32.00;26.80;;;;;;20786;6778;117210;-88
2022/08/24 13:18:25;;;;;;;1.70;1.70;;;31.90;27.00;;;;;;20852;6772;117424;-91
2022/08/24 13:21:01;;;;;;;3.50;1.50;;;31.80;27.10;;;;;;20855;6807;117189;-88
2022/08/24 13:23:37;;;;;;;1.70;1.60;;;31.60;27.20;;;;;;20672;6752;276250;-88
2022/08/24 13:26:21;;;;;;;1.80;1.47;;;31.80;27.50;;;;;;20718;6652;273057;-87
2022/08/24 13:28:57;;;;;;;1.35;1.35;;;32.10;27.00;;;;;;20612;6751;288218;-91
2022/08/24 13:31:33;;;;;;;1.80;1.70;;;32.40;26.40;;;;;;20822;6773;117262;-88
2022/08/24 13:34:16;;;;;;;1.75;1.67;;;32.30;26.50;;;;;;20646;6760;306861;-88
2022/08/24 13:36:51;;;;;;;2.83;1.47;;;32.30;27.50;;;;;;20761;6749;118583;-88
2022/08/24 13:39:53;;;;;;;1.73;1.62;;;32.40;27.40;;;;;;20669;6752;336323;-88
2022/08/24 13:42:55;;;;;;;2.00;1.90;;;32.40;27.40;;;;;;20901;6739;122989;-88
2022/08/24 13:45:51;;;;;;;1.67;1.57;;;32.30;27.40;;;;;;20677;6739;295044;-88
2022/08/24 13:48:46;;;;;;;1.70;1.70;;;32.30;27.60;;;;;;20651;6743;307253;-89
2022/08/24 13:51:35;;;;;;;1.80;1.70;;;32.60;27.20;;;;;;20874;6751;117190;-89
2022/08/24 13:54:18;;;;;;;1.50;1.40;;;32.40;27.60;;;;;;20724;6750;276548;-89
2022/08/24 13:57:34;;;;;;;3.73;1.90;;;32.40;27.60;;;;;;20754;6757;117873;-88
2022/08/24 14:00:28;;;;;;;1.60;1.50;;;32.30;27.90;;;;;;20569;6767;298140;-90
2022/08/24 14:03:17;;;;;;;4.30;1.90;;;32.40;28.10;;;;;;20808;6783;117759;-88
2022/08/24 14:06:16;;;;;;;3.43;1.80;;;32.30;28.20;;;;;;20718;6789;117256;-89
2022/08/24 14:09:08;;;;;;;2.20;1.77;;;32.00;28.30;;;;;;20833;6766;117667;-88
2022/08/24 14:12:20;;;;;;;2.00;1.90;;;31.80;28.70;;;;;;20823;6765;120369;-89